City Of Port Allen — WDD9053 — position and weather

sailwx.info

Track history (hours):
 
Tides and Currents Weather Stations Pressure Air Temp Water Temp Dewpoint Dewpoint Depression Visibility Wind Speed Wind Dir Waves Ship Positions

City Of Port Allen

Owner: Ingram Barge Company LLC, Nashville, TN. More information available from US FCC via Universal Licensing System and Coast Guard Vessel Documentation Center.

Last reported at 2018-Dec-14 05:00 UTC. Time now 2018-Dec-14 05:17 UTC.
Position N 29°47' W 092°12'.

Length 23 m.

Type: Towing. MMSI: 367306270.

Date/timePositionNaut miles runAvg speedWind from/ knotsBaromVisibWave heightAir tempDewpointWater temp
2018-Dec-14 05:00N 29°47' W 092°12'1 1.4
2018-Dec-14 04:30N 29°47' W 092°13'1 2.8
2018-Dec-14 04:00N 29°48' W 092°14'4 4.4
2018-Dec-14 03:00N 29°50' W 092°19'2 4.7
2018-Dec-14 02:30N 29°51' W 092°21'3 3.7
2018-Dec-14 01:35N 29°53' W 092°24'24 4.8
2018-Dec-13 20:38N 29°57' W 092°51'5 4.7
2018-Dec-13 19:35N 29°56' W 092°57'0 4.7
2018-Dec-13 19:30N 29°56' W 092°57'2 4.8
2018-Dec-13 19:00N 29°56' W 093°00'3 4.9
2018-Dec-13 18:22N 29°56' W 093°04'1 2.7
2018-Dec-13 17:54N 29°56' W 093°05'0 0.1
2018-Dec-13 17:30N 29°56' W 093°05'0 0.1
2018-Dec-13 17:00N 29°56' W 093°05'0 0.0
2018-Dec-13 16:29N 29°56' W 093°05'0 0.1
2018-Dec-13 15:58N 29°56' W 093°05'1 0.4
2018-Dec-13 12:52N 29°56' W 093°07'1 2.7
2018-Dec-13 12:30N 29°56' W 093°08'1 2.3
2018-Dec-13 12:00N 29°56' W 093°09'2 3.1
2018-Dec-13 11:30N 29°57' W 093°10'1 3.0
2018-Dec-13 11:00N 29°58' W 093°12'0 0.0
2018-Dec-13 10:30N 29°58' W 093°12'0 0.0
2018-Dec-13 10:00N 29°58' W 093°12'0 0.7
2018-Dec-13 09:30N 29°58' W 093°12'1 2.9
2018-Dec-13 09:00N 29°60' W 093°13'2 3.8
2018-Dec-13 08:30N 30°01' W 093°14'2 3.2
2018-Dec-13 08:00N 30°02' W 093°15'2 3.3
2018-Dec-13 07:30N 30°04' W 093°16'2 3.7
2018-Dec-13 07:00N 30°05' W 093°17'1 1.1
2018-Dec-13 06:30N 30°05' W 093°18'1 1.1
2018-Dec-13 06:00N 30°06' W 093°18'0 0.0
2018-Dec-13 05:30N 30°06' W 093°18'0 0.0
2018-Dec-13 05:00N 30°06' W 093°18'0 0.0
2018-Dec-13 04:30N 30°06' W 093°18'0 0.0
2018-Dec-13 04:00N 30°06' W 093°18'0 0.0
2018-Dec-13 03:30N 30°06' W 093°18'0 0.0
2018-Dec-13 03:00N 30°06' W 093°18'0 0.0
2018-Dec-13 02:30N 30°06' W 093°18'0 0.0
2018-Dec-13 02:00N 30°06' W 093°18'0 0.0
2018-Dec-13 01:30N 30°06' W 093°18'0 0.1
2018-Dec-13 01:00N 30°06' W 093°18'0 0.0
2018-Dec-13 00:30N 30°06' W 093°18'0 0.0
2018-Dec-13 00:00N 30°06' W 093°18'0 0.0
2018-Dec-12 23:30N 30°06' W 093°18'0 0.0
2018-Dec-12 23:00N 30°06' W 093°18'0 0.0
2018-Dec-12 22:30N 30°06' W 093°18'0 0.0
2018-Dec-12 22:00N 30°06' W 093°18'0 0.0
2018-Dec-12 21:30N 30°06' W 093°18'0 0.0
2018-Dec-12 21:00N 30°06' W 093°18'0 0.0
2018-Dec-12 20:30N 30°06' W 093°18'0 0.0
2018-Dec-12 20:00N 30°06' W 093°18'0 0.0
2018-Dec-12 19:30N 30°06' W 093°18'0 0.0
2018-Dec-12 19:00N 30°06' W 093°18'0 0.0
2018-Dec-12 18:30N 30°06' W 093°18'0 0.0
2018-Dec-12 18:00N 30°06' W 093°18'0 0.0
2018-Dec-12 17:30N 30°06' W 093°18'0 0.0
2018-Dec-12 17:00N 30°06' W 093°18'0 0.0
2018-Dec-12 16:30N 30°06' W 093°18'0 0.0
2018-Dec-12 16:00N 30°06' W 093°18'0 0.0
2018-Dec-12 15:30N 30°06' W 093°18'0 0.0
2018-Dec-12 15:00N 30°06' W 093°18'0 0.0
2018-Dec-12 14:30N 30°06' W 093°18'0 0.0
2018-Dec-12 14:00N 30°06' W 093°18'0 0.0
2018-Dec-12 13:30N 30°06' W 093°18'0 0.0
2018-Dec-12 13:00N 30°06' W 093°18'0 0.0
2018-Dec-12 12:30N 30°06' W 093°18'0 0.0
2018-Dec-12 12:00N 30°06' W 093°18'0 0.0
2018-Dec-12 11:30N 30°06' W 093°18'0 0.0
2018-Dec-12 11:00N 30°06' W 093°18'0 0.0
2018-Dec-12 10:30N 30°06' W 093°18'0 0.1
2018-Dec-12 10:00N 30°06' W 093°18'1 1.5
2018-Dec-12 09:30N 30°06' W 093°19'0 0.0
2018-Dec-12 09:00N 30°06' W 093°19'0 0.8
2018-Dec-12 08:30N 30°06' W 093°19'2 4.5
2018-Dec-12 08:00N 30°04' W 093°21'2 3.2
2018-Dec-12 07:30N 30°04' W 093°23'1 2.1
2018-Dec-12 07:00N 30°04' W 093°24'2 4.0
2018-Dec-12 06:30N 30°04' W 093°26'0 0.7
2018-Dec-12 06:00N 30°04' W 093°27'0 0.5
2018-Dec-12 05:30N 30°04' W 093°27'0 0.3
2018-Dec-12 05:00N 30°04' W 093°27'2 3.1
2018-Dec-12 04:30N 30°04' W 093°29'2 3.8
2018-Dec-12 04:00N 30°04' W 093°31'2 3.1
2018-Dec-12 03:30N 30°04' W 093°33'2 4.1
2018-Dec-12 03:00N 30°04' W 093°35'2 3.9
2018-Dec-12 02:30N 30°04' W 093°38'2 4.0
2018-Dec-12 02:00N 30°04' W 093°40'2 4.1
2018-Dec-12 01:30N 30°03' W 093°42'1 2.4
2018-Dec-12 01:00N 30°03' W 093°44'1 2.1
2018-Dec-12 00:30N 30°02' W 093°44'2 4.4
2018-Dec-12 00:00N 30°00' W 093°46'2 4.8
2018-Dec-11 23:30N 29°59' W 093°48'3 5.1
2018-Dec-11 23:00N 29°58' W 093°51'2 4.9
2018-Dec-11 22:30N 29°56' W 093°52'0 0.1
2018-Dec-11 22:00N 29°56' W 093°52'1 2.3
2018-Dec-11 21:30N 29°55' W 093°53'3 5.4
2018-Dec-11 21:00N 29°53' W 093°55'3 5.0
2018-Dec-11 20:30N 29°51' W 093°57'2 4.8
2018-Dec-11 20:01N 29°49' W 093°59'2 4.1
2018-Dec-11 19:30N 29°48' W 094°00'2 4.7
2018-Dec-11 19:01N 29°46' W 094°02'2 4.6
2018-Dec-11 18:30N 29°45' W 094°05'2 4.6
2018-Dec-11 18:00N 29°43' W 094°07'2 4.7
2018-Dec-11 17:30N 29°42' W 094°09'2 4.0
2018-Dec-11 17:00N 29°41' W 094°11'2 4.6
2018-Dec-11 16:30N 29°40' W 094°13'2 3.7
2018-Dec-11 15:59N 29°39' W 094°15'2 4.2
2018-Dec-11 15:30N 29°38' W 094°17'3 4.2
2018-Dec-11 14:53N 29°37' W 094°20'2 4.1
2018-Dec-11 14:30N 29°37' W 094°22'2 3.8
2018-Dec-11 13:59N 29°36' W 094°24'1 2.8
2018-Dec-11 13:30N 29°35' W 094°25'2 3.3
2018-Dec-11 13:01N 29°34' W 094°26'2 3.7
2018-Dec-11 12:30N 29°33' W 094°28'2 3.1
2018-Dec-11 12:00N 29°32' W 094°29'2 4.6
2018-Dec-11 11:30N 29°31' W 094°31'2 4.7
2018-Dec-11 11:00N 29°30' W 094°34'2 4.7
2018-Dec-11 10:30N 29°29' W 094°36'3 4.7
2018-Dec-11 09:53N 29°28' W 094°39'2 5.2
2018-Dec-11 09:27N 29°27' W 094°42'2 4.1
2018-Dec-11 09:00N 29°25' W 094°43'0 0.1
2018-Dec-11 08:29N 29°25' W 094°43'0 0.2
2018-Dec-11 08:00N 29°25' W 094°43'1 2.0
2018-Dec-11 07:30N 29°25' W 094°44'2 4.7
2018-Dec-11 07:00N 29°23' W 094°46'2 4.3
2018-Dec-11 06:30N 29°23' W 094°49'3 5.5
2018-Dec-11 06:00N 29°25' W 094°50'3 6.7
2018-Dec-11 05:30N 29°28' W 094°51'3 6.6
2018-Dec-11 05:00N 29°31' W 094°53'3 6.6
2018-Dec-11 04:30N 29°34' W 094°55'3 6.4
2018-Dec-11 04:00N 29°37' W 094°57'4 7.8
2018-Dec-11 03:30N 29°40' W 094°59'3 6.5
2018-Dec-11 03:01N 29°43' W 095°01'3 5.6
2018-Dec-11 02:30N 29°45' W 095°04'3 2.6
2018-Dec-11 01:30N 29°47' W 095°04'0 0.5
2018-Dec-11 01:00N 29°47' W 095°05'0 0.0
2018-Dec-11 00:29N 29°47' W 095°05'1 2.3
2018-Dec-10 23:59N 29°46' W 095°05'0 0.6
2018-Dec-10 23:30N 29°46' W 095°06'0 0.1
2018-Dec-10 19:10N 29°45' W 095°06'1 5.6
2018-Dec-10 19:00N 29°46' W 095°05'0 0.2
2018-Dec-10 18:14N 29°46' W 095°05'2 5.7
2018-Dec-10 17:55N 29°45' W 095°06'3 6.4
2018-Dec-10 17:30N 29°44' W 095°09'2 1.1
2018-Dec-10 15:48N 29°45' W 095°11'0 0.4
2018-Dec-10 15:14N 29°45' W 095°11'1 0.9
2018-Dec-10 14:38N 29°45' W 095°10'1 6.1
2018-Dec-10 14:27N 29°44' W 095°09'3 6.3
2018-Dec-10 14:00N 29°45' W 095°06'1 1.1
2018-Dec-10 13:19N 29°46' W 095°06'0 0.0
2018-Dec-10 13:00N 29°46' W 095°06'0 0.0
2018-Dec-10 12:10N 29°46' W 095°06'0 0.1
2018-Dec-10 12:01N 29°46' W 095°06'2 4.8
2018-Dec-10 11:30N 29°44' W 095°08'2 4.7
2018-Dec-10 11:00N 29°45' W 095°11'0 0.9
2018-Dec-10 10:26N 29°45' W 095°10'1 1.6
2018-Dec-10 10:00N 29°45' W 095°10'2 3.7
2018-Dec-10 09:27N 29°44' W 095°07'2 4.8
2018-Dec-10 09:00N 29°46' W 095°05'2 3.2
2018-Dec-10 08:27N 29°47' W 095°04'0 0.8
2018-Dec-10 07:56N 29°47' W 095°04'0 0.7
2018-Dec-10 07:30N 29°47' W 095°04'0 0.2
2018-Dec-10 06:50N 29°47' W 095°04'0 0.6
2018-Dec-10 06:07N 29°47' W 095°05'1 2.8
2018-Dec-10 05:56N 29°46' W 095°05'3 3.6
2018-Dec-10 05:13N 29°44' W 095°03'1 4.7
2018-Dec-10 04:58N 29°44' W 095°02'2 4.1
2018-Dec-10 04:30N 29°42' W 095°01'2 4.7
2018-Dec-10 04:00N 29°41' W 094°59'3 5.7
2018-Dec-10 03:30N 29°38' W 094°58'6 6.0
2018-Dec-10 02:30N 29°33' W 094°54'4 6.9
2018-Dec-10 02:00N 29°30' W 094°52'3 6.3
2018-Dec-10 01:30N 29°27' W 094°50'4 7.5
2018-Dec-10 00:54N 29°23' W 094°48'22 2.9
2018-Dec-09 17:25N 29°34' W 094°27'2 3.7
2018-Dec-09 16:52N 29°35' W 094°25'1 3.6
2018-Dec-09 16:30N 29°36' W 094°24'2 4.0
2018-Dec-09 16:00N 29°37' W 094°21'2 4.3
2018-Dec-09 15:30N 29°38' W 094°19'2 4.3
2018-Dec-09 15:00N 29°39' W 094°17'2 4.2
2018-Dec-09 14:30N 29°40' W 094°15'1 2.7
2018-Dec-09 14:00N 29°40' W 094°14'2 4.0
2018-Dec-09 13:30N 29°41' W 094°12'2 3.7
2018-Dec-09 13:00N 29°41' W 094°09'2 3.5
2018-Dec-09 12:30N 29°43' W 094°08'2 3.3
2018-Dec-09 12:00N 29°44' W 094°06'2 3.4
2018-Dec-09 11:30N 29°45' W 094°05'2 3.3
2018-Dec-09 11:00N 29°46' W 094°03'2 3.2
2018-Dec-09 10:30N 29°47' W 094°02'1 3.0
2018-Dec-09 10:00N 29°48' W 094°01'1 2.8
2018-Dec-09 09:30N 29°49' W 093°60'1 2.9
2018-Dec-09 09:00N 29°49' W 093°58'2 4.4
2018-Dec-09 08:30N 29°51' W 093°57'2 4.9
2018-Dec-09 08:00N 29°53' W 093°55'3 5.2
2018-Dec-09 07:30N 29°55' W 093°53'1 2.8
2018-Dec-09 07:00N 29°56' W 093°52'0 0.0
2018-Dec-09 06:30N 29°56' W 093°52'0 0.0
2018-Dec-09 06:00N 29°56' W 093°52'0 0.0
2018-Dec-09 05:30N 29°56' W 093°52'0 0.0
2018-Dec-09 05:00N 29°56' W 093°52'0 0.0
2018-Dec-09 04:30N 29°56' W 093°52'0 0.0
2018-Dec-09 04:00N 29°56' W 093°52'0 0.0
2018-Dec-09 03:30N 29°56' W 093°52'0 0.0
2018-Dec-09 03:00N 29°56' W 093°52'0 0.0
2018-Dec-09 02:30N 29°56' W 093°52'0 0.0
2018-Dec-09 02:00N 29°56' W 093°52'0 0.0
2018-Dec-09 01:30N 29°56' W 093°52'1 1.5
2018-Dec-09 01:00N 29°57' W 093°52'2 4.4
2018-Dec-09 00:30N 29°59' W 093°50'3 5.5
2018-Dec-09 00:00N 29°60' W 093°47'3 5.6
2018-Dec-08 23:30N 30°01' W 093°45'3 4.9
2018-Dec-08 22:59N 30°03' W 093°43'2 4.2
2018-Dec-08 22:30N 30°04' W 093°40'2 4.1
2018-Dec-08 21:59N 30°04' W 093°38'2 3.5
2018-Dec-08 21:30N 30°04' W 093°36'2 3.6
2018-Dec-08 21:00N 30°04' W 093°34'2 3.4
2018-Dec-08 20:30N 30°04' W 093°32'2 3.4
2018-Dec-08 20:00N 30°04' W 093°30'1 2.9
2018-Dec-08 19:30N 30°04' W 093°28'1 2.8
2018-Dec-08 19:00N 30°04' W 093°27'1 2.8
2018-Dec-08 18:30N 30°04' W 093°25'1 2.9
2018-Dec-08 18:00N 30°04' W 093°23'1 2.7
2018-Dec-08 17:30N 30°04' W 093°22'1 2.8
2018-Dec-08 17:00N 30°04' W 093°21'2 3.5
2018-Dec-08 16:30N 30°06' W 093°19'1 1.4
2018-Dec-08 16:01N 30°06' W 093°19'0 0.1
2018-Dec-08 15:31N 30°06' W 093°19'0 0.0
2018-Dec-08 15:00N 30°06' W 093°19'0 0.0
2018-Dec-08 14:30N 30°06' W 093°19'0 0.1
2018-Dec-08 14:00N 30°06' W 093°19'1 1.1
2018-Dec-08 13:30N 30°06' W 093°18'1 2.0
2018-Dec-08 13:00N 30°05' W 093°17'1 1.4
2018-Dec-08 12:30N 30°05' W 093°17'0 0.9
2018-Dec-08 12:00N 30°04' W 093°16'0 0.1
2018-Dec-08 11:30N 30°04' W 093°16'0 0.0
2018-Dec-08 11:00N 30°04' W 093°16'0 0.0
2018-Dec-08 10:30N 30°04' W 093°16'0 0.0
2018-Dec-08 10:00N 30°04' W 093°16'0 0.0
2018-Dec-08 09:30N 30°04' W 093°16'0 0.0
2018-Dec-08 09:00N 30°04' W 093°16'0 0.1
2018-Dec-08 08:31N 30°04' W 093°16'0 0.1
2018-Dec-08 08:00N 30°04' W 093°16'0 0.0
2018-Dec-08 07:30N 30°04' W 093°16'0 0.0
2018-Dec-08 07:00N 30°04' W 093°16'0 0.0
2018-Dec-08 06:30N 30°04' W 093°16'0 0.0
2018-Dec-08 06:00N 30°04' W 093°16'0 0.0
2018-Dec-08 05:30N 30°04' W 093°16'0 0.0
2018-Dec-08 05:00N 30°04' W 093°16'0 0.0
2018-Dec-08 04:30N 30°04' W 093°16'0 0.0
2018-Dec-08 04:00N 30°04' W 093°16'0 0.0
2018-Dec-08 03:30N 30°04' W 093°16'0 0.0
2018-Dec-08 03:00N 30°04' W 093°16'0 0.0
2018-Dec-08 02:30N 30°04' W 093°16'0 0.0
2018-Dec-08 02:00N 30°04' W 093°16'0 0.1
2018-Dec-08 01:31N 30°04' W 093°16'0 0.0
2018-Dec-08 01:00N 30°04' W 093°16'0 0.0
2018-Dec-08 00:30N 30°04' W 093°16'0 0.0
2018-Dec-08 00:00N 30°04' W 093°16'0 0.0
2018-Dec-07 23:30N 30°04' W 093°16'0 0.0
2018-Dec-07 23:00N 30°04' W 093°16'0 0.0
2018-Dec-07 22:30N 30°04' W 093°16'0 0.0
2018-Dec-07 22:00N 30°04' W 093°16'0 0.0
2018-Dec-07 21:30N 30°04' W 093°16'0 0.0
2018-Dec-07 21:00N 30°04' W 093°16'0 0.0
2018-Dec-07 20:30N 30°04' W 093°16'0 0.0
2018-Dec-07 20:00N 30°04' W 093°16'0 0.0
2018-Dec-07 19:30N 30°04' W 093°16'0 0.0
2018-Dec-07 19:00N 30°04' W 093°16'0 0.0
2018-Dec-07 18:30N 30°04' W 093°16'0 0.0
2018-Dec-07 18:00N 30°04' W 093°16'0 0.0
2018-Dec-07 17:30N 30°04' W 093°16'0 0.0
2018-Dec-07 17:00N 30°04' W 093°16'0 0.0
2018-Dec-07 16:30N 30°04' W 093°16'0 0.0
2018-Dec-07 16:00N 30°04' W 093°16'0 0.0
2018-Dec-07 15:30N 30°04' W 093°16'0 0.0
2018-Dec-07 15:00N 30°04' W 093°16'0 0.0
2018-Dec-07 14:30N 30°04' W 093°16'0 0.0
2018-Dec-07 14:00N 30°04' W 093°16'0 0.0
2018-Dec-07 13:30N 30°04' W 093°16'0 0.0
2018-Dec-07 13:00N 30°04' W 093°16'0 0.0
2018-Dec-07 12:30N 30°04' W 093°16'0 0.0
2018-Dec-07 12:00N 30°04' W 093°16'0 0.0
2018-Dec-07 11:30N 30°04' W 093°16'0 0.0
2018-Dec-07 11:00N 30°04' W 093°16'0 0.0
2018-Dec-07 10:30N 30°04' W 093°16'0 0.0
2018-Dec-07 10:00N 30°04' W 093°16'0 0.0
2018-Dec-07 09:30N 30°04' W 093°16'0 0.0
2018-Dec-07 09:00N 30°04' W 093°16'0 0.0
2018-Dec-07 08:30N 30°04' W 093°16'0 0.0
2018-Dec-07 08:00N 30°04' W 093°16'0 0.0
2018-Dec-07 07:30N 30°04' W 093°16'1 1.7
2018-Dec-07 07:00N 30°04' W 093°16'1 2.2
2018-Dec-07 06:31N 30°03' W 093°16'0 0.1
2018-Dec-07 06:00N 30°03' W 093°16'0 0.0
2018-Dec-07 05:30N 30°03' W 093°16'0 0.7
2018-Dec-07 05:00N 30°02' W 093°16'2 3.2
2018-Dec-07 04:30N 30°01' W 093°14'2 3.3
2018-Dec-07 04:00N 29°60' W 093°13'2 3.5
2018-Dec-07 03:30N 29°59' W 093°12'2 1.5
2018-Dec-07 02:30N 29°57' W 093°11'0 0.0
2018-Dec-07 02:00N 29°57' W 093°11'0 0.0
2018-Dec-07 01:30N 29°57' W 093°11'0 0.0
2018-Dec-07 01:00N 29°57' W 093°11'0 0.0
2018-Dec-07 00:30N 29°57' W 093°11'0 0.0
2018-Dec-07 00:00N 29°57' W 093°11'0 0.0
2018-Dec-06 23:30N 29°57' W 093°11'0 0.0
2018-Dec-06 23:00N 29°57' W 093°11'0 0.0
2018-Dec-06 22:30N 29°57' W 093°11'0 0.0
2018-Dec-06 22:00N 29°57' W 093°11'0 0.0
2018-Dec-06 21:30N 29°57' W 093°11'0 0.0
2018-Dec-06 21:00N 29°57' W 093°11'0 0.0
2018-Dec-06 20:30N 29°57' W 093°11'0 0.0
2018-Dec-06 20:00N 29°57' W 093°11'0 0.0
2018-Dec-06 19:30N 29°57' W 093°11'0 0.0
2018-Dec-06 19:01N 29°57' W 093°11'0 0.0
2018-Dec-06 18:30N 29°57' W 093°11'0 0.0
2018-Dec-06 18:00N 29°57' W 093°11'0 0.1
2018-Dec-06 17:31N 29°57' W 093°11'0 0.3
2018-Dec-06 17:00N 29°57' W 093°11'0 0.4
2018-Dec-06 16:30N 29°57' W 093°11'0 0.3
2018-Dec-06 16:00N 29°57' W 093°10'0 0.1
2018-Dec-06 15:30N 29°57' W 093°10'1 2.0
2018-Dec-06 15:00N 29°56' W 093°10'2 3.5
2018-Dec-06 14:30N 29°56' W 093°08'2 3.6
2018-Dec-06 14:00N 29°56' W 093°06'2 3.7
2018-Dec-06 13:30N 29°56' W 093°04'1 0.8
2018-Dec-06 12:01N 29°56' W 093°02'0 0.0
2018-Dec-06 12:00N 29°56' W 093°02'0 0.2
2018-Dec-06 11:30N 29°56' W 093°02'1 0.9
2018-Dec-06 10:29N 29°56' W 093°01'2 3.5
2018-Dec-06 09:50N 29°56' W 092°58'31 1.3
2018-Dec-05 10:44N 29°53' W 092°23'1 3.2
2018-Dec-05 10:30N 29°52' W 092°22'1 2.9
2018-Dec-05 10:00N 29°51' W 092°21'1 2.7
2018-Dec-05 09:30N 29°51' W 092°20'2 3.0
2018-Dec-05 09:00N 29°50' W 092°18'2 3.1
2018-Dec-05 08:30N 29°49' W 092°17'2 3.1
2018-Dec-05 08:00N 29°48' W 092°15'2 3.3
2018-Dec-05 07:30N 29°48' W 092°14'1 2.8
2018-Dec-05 07:00N 29°47' W 092°12'1 2.6
2018-Dec-05 06:30N 29°47' W 092°11'1 2.4
2018-Dec-05 06:00N 29°47' W 092°10'2 3.0
2018-Dec-05 05:30N 29°47' W 092°08'2 3.4
2018-Dec-05 05:00N 29°48' W 092°06'2 3.3
2018-Dec-05 04:30N 29°48' W 092°04'2 3.2
2018-Dec-05 04:00N 29°49' W 092°02'2 3.4
2018-Dec-05 03:30N 29°50' W 092°01'2 3.5
2018-Dec-05 03:00N 29°50' W 091°59'2 3.8
2018-Dec-05 02:30N 29°51' W 091°57'6 4.1
2018-Dec-05 01:03N 29°50' W 091°50'  
Track history (hours):
 
Tides and Currents Weather Stations Pressure Air Temp Water Temp Dewpoint Dewpoint Depression Visibility Wind Speed Wind Dir Waves Ship Positions

City Of Port Allen

Owner: Ingram Barge Company LLC, Nashville, TN. More information available from US FCC via Universal Licensing System and Coast Guard Vessel Documentation Center.

Last reported at 2018-Dec-14 05:00 UTC. Time now 2018-Dec-14 05:17 UTC.
Position N 29°47' W 092°12'.

Length 23 m.

Type: Towing. MMSI: 367306270.

Date/timePositionNaut miles runAvg speedWind from/ knotsBaromVisibWave heightAir tempDewpointWater temp
2018-Dec-14 05:00N 29°47' W 092°12'1 1.4
2018-Dec-14 04:30N 29°47' W 092°13'1 2.8
2018-Dec-14 04:00N 29°48' W 092°14'4 4.4
2018-Dec-14 03:00N 29°50' W 092°19'2 4.7
2018-Dec-14 02:30N 29°51' W 092°21'3 3.7
2018-Dec-14 01:35N 29°53' W 092°24'24 4.8
2018-Dec-13 20:38N 29°57' W 092°51'5 4.7
2018-Dec-13 19:35N 29°56' W 092°57'0 4.7
2018-Dec-13 19:30N 29°56' W 092°57'2 4.8
2018-Dec-13 19:00N 29°56' W 093°00'3 4.9
2018-Dec-13 18:22N 29°56' W 093°04'1 2.7
2018-Dec-13 17:54N 29°56' W 093°05'0 0.1
2018-Dec-13 17:30N 29°56' W 093°05'0 0.1
2018-Dec-13 17:00N 29°56' W 093°05'0 0.0
2018-Dec-13 16:29N 29°56' W 093°05'0 0.1
2018-Dec-13 15:58N 29°56' W 093°05'1 0.4
2018-Dec-13 12:52N 29°56' W 093°07'1 2.7
2018-Dec-13 12:30N 29°56' W 093°08'1 2.3
2018-Dec-13 12:00N 29°56' W 093°09'2 3.1
2018-Dec-13 11:30N 29°57' W 093°10'1 3.0
2018-Dec-13 11:00N 29°58' W 093°12'0 0.0
2018-Dec-13 10:30N 29°58' W 093°12'0 0.0
2018-Dec-13 10:00N 29°58' W 093°12'0 0.7
2018-Dec-13 09:30N 29°58' W 093°12'1 2.9
2018-Dec-13 09:00N 29°60' W 093°13'2 3.8
2018-Dec-13 08:30N 30°01' W 093°14'2 3.2
2018-Dec-13 08:00N 30°02' W 093°15'2 3.3
2018-Dec-13 07:30N 30°04' W 093°16'2 3.7
2018-Dec-13 07:00N 30°05' W 093°17'1 1.1
2018-Dec-13 06:30N 30°05' W 093°18'1 1.1
2018-Dec-13 06:00N 30°06' W 093°18'0 0.0
2018-Dec-13 05:30N 30°06' W 093°18'0 0.0
2018-Dec-13 05:00N 30°06' W 093°18'0 0.0
2018-Dec-13 04:30N 30°06' W 093°18'0 0.0
2018-Dec-13 04:00N 30°06' W 093°18'0 0.0
2018-Dec-13 03:30N 30°06' W 093°18'0 0.0
2018-Dec-13 03:00N 30°06' W 093°18'0 0.0
2018-Dec-13 02:30N 30°06' W 093°18'0 0.0
2018-Dec-13 02:00N 30°06' W 093°18'0 0.0
2018-Dec-13 01:30N 30°06' W 093°18'0 0.1
2018-Dec-13 01:00N 30°06' W 093°18'0 0.0
2018-Dec-13 00:30N 30°06' W 093°18'0 0.0
2018-Dec-13 00:00N 30°06' W 093°18'0 0.0
2018-Dec-12 23:30N 30°06' W 093°18'0 0.0
2018-Dec-12 23:00N 30°06' W 093°18'0 0.0
2018-Dec-12 22:30N 30°06' W 093°18'0 0.0
2018-Dec-12 22:00N 30°06' W 093°18'0 0.0
2018-Dec-12 21:30N 30°06' W 093°18'0 0.0
2018-Dec-12 21:00N 30°06' W 093°18'0 0.0
2018-Dec-12 20:30N 30°06' W 093°18'0 0.0
2018-Dec-12 20:00N 30°06' W 093°18'0 0.0
2018-Dec-12 19:30N 30°06' W 093°18'0 0.0
2018-Dec-12 19:00N 30°06' W 093°18'0 0.0
2018-Dec-12 18:30N 30°06' W 093°18'0 0.0
2018-Dec-12 18:00N 30°06' W 093°18'0 0.0
2018-Dec-12 17:30N 30°06' W 093°18'0 0.0
2018-Dec-12 17:00N 30°06' W 093°18'0 0.0
2018-Dec-12 16:30N 30°06' W 093°18'0 0.0
2018-Dec-12 16:00N 30°06' W 093°18'0 0.0
2018-Dec-12 15:30N 30°06' W 093°18'0 0.0
2018-Dec-12 15:00N 30°06' W 093°18'0 0.0
2018-Dec-12 14:30N 30°06' W 093°18'0 0.0
2018-Dec-12 14:00N 30°06' W 093°18'0 0.0
2018-Dec-12 13:30N 30°06' W 093°18'0 0.0
2018-Dec-12 13:00N 30°06' W 093°18'0 0.0
2018-Dec-12 12:30N 30°06' W 093°18'0 0.0
2018-Dec-12 12:00N 30°06' W 093°18'0 0.0
2018-Dec-12 11:30N 30°06' W 093°18'0 0.0
2018-Dec-12 11:00N 30°06' W 093°18'0 0.0
2018-Dec-12 10:30N 30°06' W 093°18'0 0.1
2018-Dec-12 10:00N 30°06' W 093°18'1 1.5
2018-Dec-12 09:30N 30°06' W 093°19'0 0.0
2018-Dec-12 09:00N 30°06' W 093°19'0 0.8
2018-Dec-12 08:30N 30°06' W 093°19'2 4.5
2018-Dec-12 08:00N 30°04' W 093°21'2 3.2
2018-Dec-12 07:30N 30°04' W 093°23'1 2.1
2018-Dec-12 07:00N 30°04' W 093°24'2 4.0
2018-Dec-12 06:30N 30°04' W 093°26'0 0.7
2018-Dec-12 06:00N 30°04' W 093°27'0 0.5
2018-Dec-12 05:30N 30°04' W 093°27'0 0.3
2018-Dec-12 05:00N 30°04' W 093°27'2 3.1
2018-Dec-12 04:30N 30°04' W 093°29'2 3.8
2018-Dec-12 04:00N 30°04' W 093°31'2 3.1
2018-Dec-12 03:30N 30°04' W 093°33'2 4.1
2018-Dec-12 03:00N 30°04' W 093°35'2 3.9
2018-Dec-12 02:30N 30°04' W 093°38'2 4.0
2018-Dec-12 02:00N 30°04' W 093°40'2 4.1
2018-Dec-12 01:30N 30°03' W 093°42'1 2.4
2018-Dec-12 01:00N 30°03' W 093°44'1 2.1
2018-Dec-12 00:30N 30°02' W 093°44'2 4.4
2018-Dec-12 00:00N 30°00' W 093°46'2 4.8
2018-Dec-11 23:30N 29°59' W 093°48'3 5.1
2018-Dec-11 23:00N 29°58' W 093°51'2 4.9
2018-Dec-11 22:30N 29°56' W 093°52'0 0.1
2018-Dec-11 22:00N 29°56' W 093°52'1 2.3
2018-Dec-11 21:30N 29°55' W 093°53'3 5.4
2018-Dec-11 21:00N 29°53' W 093°55'3 5.0
2018-Dec-11 20:30N 29°51' W 093°57'2 4.8
2018-Dec-11 20:01N 29°49' W 093°59'2 4.1
2018-Dec-11 19:30N 29°48' W 094°00'2 4.7
2018-Dec-11 19:01N 29°46' W 094°02'2 4.6
2018-Dec-11 18:30N 29°45' W 094°05'2 4.6
2018-Dec-11 18:00N 29°43' W 094°07'2 4.7
2018-Dec-11 17:30N 29°42' W 094°09'2 4.0
2018-Dec-11 17:00N 29°41' W 094°11'2 4.6
2018-Dec-11 16:30N 29°40' W 094°13'2 3.7
2018-Dec-11 15:59N 29°39' W 094°15'2 4.2
2018-Dec-11 15:30N 29°38' W 094°17'3 4.2
2018-Dec-11 14:53N 29°37' W 094°20'2 4.1
2018-Dec-11 14:30N 29°37' W 094°22'2 3.8
2018-Dec-11 13:59N 29°36' W 094°24'1 2.8
2018-Dec-11 13:30N 29°35' W 094°25'2 3.3
2018-Dec-11 13:01N 29°34' W 094°26'2 3.7
2018-Dec-11 12:30N 29°33' W 094°28'2 3.1
2018-Dec-11 12:00N 29°32' W 094°29'2 4.6
2018-Dec-11 11:30N 29°31' W 094°31'2 4.7
2018-Dec-11 11:00N 29°30' W 094°34'2 4.7
2018-Dec-11 10:30N 29°29' W 094°36'3 4.7
2018-Dec-11 09:53N 29°28' W 094°39'2 5.2
2018-Dec-11 09:27N 29°27' W 094°42'2 4.1
2018-Dec-11 09:00N 29°25' W 094°43'0 0.1
2018-Dec-11 08:29N 29°25' W 094°43'0 0.2
2018-Dec-11 08:00N 29°25' W 094°43'1 2.0
2018-Dec-11 07:30N 29°25' W 094°44'2 4.7
2018-Dec-11 07:00N 29°23' W 094°46'2 4.3
2018-Dec-11 06:30N 29°23' W 094°49'3 5.5
2018-Dec-11 06:00N 29°25' W 094°50'3 6.7
2018-Dec-11 05:30N 29°28' W 094°51'3 6.6
2018-Dec-11 05:00N 29°31' W 094°53'3 6.6
2018-Dec-11 04:30N 29°34' W 094°55'3 6.4
2018-Dec-11 04:00N 29°37' W 094°57'4 7.8
2018-Dec-11 03:30N 29°40' W 094°59'3 6.5
2018-Dec-11 03:01N 29°43' W 095°01'3 5.6
2018-Dec-11 02:30N 29°45' W 095°04'3 2.6
2018-Dec-11 01:30N 29°47' W 095°04'0 0.5
2018-Dec-11 01:00N 29°47' W 095°05'0 0.0
2018-Dec-11 00:29N 29°47' W 095°05'1 2.3
2018-Dec-10 23:59N 29°46' W 095°05'0 0.6
2018-Dec-10 23:30N 29°46' W 095°06'0 0.1
2018-Dec-10 19:10N 29°45' W 095°06'1 5.6
2018-Dec-10 19:00N 29°46' W 095°05'0 0.2
2018-Dec-10 18:14N 29°46' W 095°05'2 5.7
2018-Dec-10 17:55N 29°45' W 095°06'3 6.4
2018-Dec-10 17:30N 29°44' W 095°09'2 1.1
2018-Dec-10 15:48N 29°45' W 095°11'0 0.4
2018-Dec-10 15:14N 29°45' W 095°11'1 0.9
2018-Dec-10 14:38N 29°45' W 095°10'1 6.1
2018-Dec-10 14:27N 29°44' W 095°09'3 6.3
2018-Dec-10 14:00N 29°45' W 095°06'1 1.1
2018-Dec-10 13:19N 29°46' W 095°06'0 0.0
2018-Dec-10 13:00N 29°46' W 095°06'0 0.0
2018-Dec-10 12:10N 29°46' W 095°06'0 0.1
2018-Dec-10 12:01N 29°46' W 095°06'2 4.8
2018-Dec-10 11:30N 29°44' W 095°08'2 4.7
2018-Dec-10 11:00N 29°45' W 095°11'0 0.9
2018-Dec-10 10:26N 29°45' W 095°10'1 1.6
2018-Dec-10 10:00N 29°45' W 095°10'2 3.7
2018-Dec-10 09:27N 29°44' W 095°07'2 4.8
2018-Dec-10 09:00N 29°46' W 095°05'2 3.2
2018-Dec-10 08:27N 29°47' W 095°04'0 0.8
2018-Dec-10 07:56N 29°47' W 095°04'0 0.7
2018-Dec-10 07:30N 29°47' W 095°04'0 0.2
2018-Dec-10 06:50N 29°47' W 095°04'0 0.6
2018-Dec-10 06:07N 29°47' W 095°05'1 2.8
2018-Dec-10 05:56N 29°46' W 095°05'3 3.6
2018-Dec-10 05:13N 29°44' W 095°03'1 4.7
2018-Dec-10 04:58N 29°44' W 095°02'2 4.1
2018-Dec-10 04:30N 29°42' W 095°01'2 4.7
2018-Dec-10 04:00N 29°41' W 094°59'3 5.7
2018-Dec-10 03:30N 29°38' W 094°58'6 6.0
2018-Dec-10 02:30N 29°33' W 094°54'4 6.9
2018-Dec-10 02:00N 29°30' W 094°52'3 6.3
2018-Dec-10 01:30N 29°27' W 094°50'4 7.5
2018-Dec-10 00:54N 29°23' W 094°48'22 2.9
2018-Dec-09 17:25N 29°34' W 094°27'2 3.7
2018-Dec-09 16:52N 29°35' W 094°25'1 3.6
2018-Dec-09 16:30N 29°36' W 094°24'2 4.0
2018-Dec-09 16:00N 29°37' W 094°21'2 4.3
2018-Dec-09 15:30N 29°38' W 094°19'2 4.3
2018-Dec-09 15:00N 29°39' W 094°17'2 4.2
2018-Dec-09 14:30N 29°40' W 094°15'1 2.7
2018-Dec-09 14:00N 29°40' W 094°14'2 4.0
2018-Dec-09 13:30N 29°41' W 094°12'2 3.7
2018-Dec-09 13:00N 29°41' W 094°09'2 3.5
2018-Dec-09 12:30N 29°43' W 094°08'2 3.3
2018-Dec-09 12:00N 29°44' W 094°06'2 3.4
2018-Dec-09 11:30N 29°45' W 094°05'2 3.3
2018-Dec-09 11:00N 29°46' W 094°03'2 3.2
2018-Dec-09 10:30N 29°47' W 094°02'1 3.0
2018-Dec-09 10:00N 29°48' W 094°01'1 2.8
2018-Dec-09 09:30N 29°49' W 093°60'1 2.9
2018-Dec-09 09:00N 29°49' W 093°58'2 4.4
2018-Dec-09 08:30N 29°51' W 093°57'2 4.9
2018-Dec-09 08:00N 29°53' W 093°55'3 5.2
2018-Dec-09 07:30N 29°55' W 093°53'1 2.8
2018-Dec-09 07:00N 29°56' W 093°52'0 0.0
2018-Dec-09 06:30N 29°56' W 093°52'0 0.0
2018-Dec-09 06:00N 29°56' W 093°52'0 0.0
2018-Dec-09 05:30N 29°56' W 093°52'0 0.0
2018-Dec-09 05:00N 29°56' W 093°52'0 0.0
2018-Dec-09 04:30N 29°56' W 093°52'0 0.0
2018-Dec-09 04:00N 29°56' W 093°52'0 0.0
2018-Dec-09 03:30N 29°56' W 093°52'0 0.0
2018-Dec-09 03:00N 29°56' W 093°52'0 0.0
2018-Dec-09 02:30N 29°56' W 093°52'0 0.0
2018-Dec-09 02:00N 29°56' W 093°52'0 0.0
2018-Dec-09 01:30N 29°56' W 093°52'1 1.5
2018-Dec-09 01:00N 29°57' W 093°52'2 4.4
2018-Dec-09 00:30N 29°59' W 093°50'3 5.5
2018-Dec-09 00:00N 29°60' W 093°47'3 5.6
2018-Dec-08 23:30N 30°01' W 093°45'3 4.9
2018-Dec-08 22:59N 30°03' W 093°43'2 4.2
2018-Dec-08 22:30N 30°04' W 093°40'2 4.1
2018-Dec-08 21:59N 30°04' W 093°38'2 3.5
2018-Dec-08 21:30N 30°04' W 093°36'2 3.6
2018-Dec-08 21:00N 30°04' W 093°34'2 3.4
2018-Dec-08 20:30N 30°04' W 093°32'2 3.4
2018-Dec-08 20:00N 30°04' W 093°30'1 2.9
2018-Dec-08 19:30N 30°04' W 093°28'1 2.8
2018-Dec-08 19:00N 30°04' W 093°27'1 2.8
2018-Dec-08 18:30N 30°04' W 093°25'1 2.9
2018-Dec-08 18:00N 30°04' W 093°23'1 2.7
2018-Dec-08 17:30N 30°04' W 093°22'1 2.8
2018-Dec-08 17:00N 30°04' W 093°21'2 3.5
2018-Dec-08 16:30N 30°06' W 093°19'1 1.4
2018-Dec-08 16:01N 30°06' W 093°19'0 0.1
2018-Dec-08 15:31N 30°06' W 093°19'0 0.0
2018-Dec-08 15:00N 30°06' W 093°19'0 0.0
2018-Dec-08 14:30N 30°06' W 093°19'0 0.1
2018-Dec-08 14:00N 30°06' W 093°19'1 1.1
2018-Dec-08 13:30N 30°06' W 093°18'1 2.0
2018-Dec-08 13:00N 30°05' W 093°17'1 1.4
2018-Dec-08 12:30N 30°05' W 093°17'0 0.9
2018-Dec-08 12:00N 30°04' W 093°16'0 0.1
2018-Dec-08 11:30N 30°04' W 093°16'0 0.0
2018-Dec-08 11:00N 30°04' W 093°16'0 0.0
2018-Dec-08 10:30N 30°04' W 093°16'0 0.0
2018-Dec-08 10:00N 30°04' W 093°16'0 0.0
2018-Dec-08 09:30N 30°04' W 093°16'0 0.0
2018-Dec-08 09:00N 30°04' W 093°16'0 0.1
2018-Dec-08 08:31N 30°04' W 093°16'0 0.1
2018-Dec-08 08:00N 30°04' W 093°16'0 0.0
2018-Dec-08 07:30N 30°04' W 093°16'0 0.0
2018-Dec-08 07:00N 30°04' W 093°16'0 0.0
2018-Dec-08 06:30N 30°04' W 093°16'0 0.0
2018-Dec-08 06:00N 30°04' W 093°16'0 0.0
2018-Dec-08 05:30N 30°04' W 093°16'0 0.0
2018-Dec-08 05:00N 30°04' W 093°16'0 0.0
2018-Dec-08 04:30N 30°04' W 093°16'0 0.0
2018-Dec-08 04:00N 30°04' W 093°16'0 0.0
2018-Dec-08 03:30N 30°04' W 093°16'0 0.0
2018-Dec-08 03:00N 30°04' W 093°16'0 0.0
2018-Dec-08 02:30N 30°04' W 093°16'0 0.0
2018-Dec-08 02:00N 30°04' W 093°16'0 0.1
2018-Dec-08 01:31N 30°04' W 093°16'0 0.0
2018-Dec-08 01:00N 30°04' W 093°16'0 0.0
2018-Dec-08 00:30N 30°04' W 093°16'0 0.0
2018-Dec-08 00:00N 30°04' W 093°16'0 0.0
2018-Dec-07 23:30N 30°04' W 093°16'0 0.0
2018-Dec-07 23:00N 30°04' W 093°16'0 0.0
2018-Dec-07 22:30N 30°04' W 093°16'0 0.0
2018-Dec-07 22:00N 30°04' W 093°16'0 0.0
2018-Dec-07 21:30N 30°04' W 093°16'0 0.0
2018-Dec-07 21:00N 30°04' W 093°16'0 0.0
2018-Dec-07 20:30N 30°04' W 093°16'0 0.0
2018-Dec-07 20:00N 30°04' W 093°16'0 0.0
2018-Dec-07 19:30N 30°04' W 093°16'0 0.0
2018-Dec-07 19:00N 30°04' W 093°16'0 0.0
2018-Dec-07 18:30N 30°04' W 093°16'0 0.0
2018-Dec-07 18:00N 30°04' W 093°16'0 0.0
2018-Dec-07 17:30N 30°04' W 093°16'0 0.0
2018-Dec-07 17:00N 30°04' W 093°16'0 0.0
2018-Dec-07 16:30N 30°04' W 093°16'0 0.0
2018-Dec-07 16:00N 30°04' W 093°16'0 0.0
2018-Dec-07 15:30N 30°04' W 093°16'0 0.0
2018-Dec-07 15:00N 30°04' W 093°16'0 0.0
2018-Dec-07 14:30N 30°04' W 093°16'0 0.0
2018-Dec-07 14:00N 30°04' W 093°16'0 0.0
2018-Dec-07 13:30N 30°04' W 093°16'0 0.0
2018-Dec-07 13:00N 30°04' W 093°16'0 0.0
2018-Dec-07 12:30N 30°04' W 093°16'0 0.0
2018-Dec-07 12:00N 30°04' W 093°16'0 0.0
2018-Dec-07 11:30N 30°04' W 093°16'0 0.0
2018-Dec-07 11:00N 30°04' W 093°16'0 0.0
2018-Dec-07 10:30N 30°04' W 093°16'0 0.0
2018-Dec-07 10:00N 30°04' W 093°16'0 0.0
2018-Dec-07 09:30N 30°04' W 093°16'0 0.0
2018-Dec-07 09:00N 30°04' W 093°16'0 0.0
2018-Dec-07 08:30N 30°04' W 093°16'0 0.0
2018-Dec-07 08:00N 30°04' W 093°16'0 0.0
2018-Dec-07 07:30N 30°04' W 093°16'1 1.7
2018-Dec-07 07:00N 30°04' W 093°16'1 2.2
2018-Dec-07 06:31N 30°03' W 093°16'0 0.1
2018-Dec-07 06:00N 30°03' W 093°16'0 0.0
2018-Dec-07 05:30N 30°03' W 093°16'0 0.7
2018-Dec-07 05:00N 30°02' W 093°16'2 3.2
2018-Dec-07 04:30N 30°01' W 093°14'2 3.3
2018-Dec-07 04:00N 29°60' W 093°13'2 3.5
2018-Dec-07 03:30N 29°59' W 093°12'2 1.5
2018-Dec-07 02:30N 29°57' W 093°11'0 0.0
2018-Dec-07 02:00N 29°57' W 093°11'0 0.0
2018-Dec-07 01:30N 29°57' W 093°11'0 0.0
2018-Dec-07 01:00N 29°57' W 093°11'0 0.0
2018-Dec-07 00:30N 29°57' W 093°11'0 0.0
2018-Dec-07 00:00N 29°57' W 093°11'0 0.0
2018-Dec-06 23:30N 29°57' W 093°11'0 0.0
2018-Dec-06 23:00N 29°57' W 093°11'0 0.0
2018-Dec-06 22:30N 29°57' W 093°11'0 0.0
2018-Dec-06 22:00N 29°57' W 093°11'0 0.0
2018-Dec-06 21:30N 29°57' W 093°11'0 0.0
2018-Dec-06 21:00N 29°57' W 093°11'0 0.0
2018-Dec-06 20:30N 29°57' W 093°11'0 0.0
2018-Dec-06 20:00N 29°57' W 093°11'0 0.0
2018-Dec-06 19:30N 29°57' W 093°11'0 0.0
2018-Dec-06 19:01N 29°57' W 093°11'0 0.0
2018-Dec-06 18:30N 29°57' W 093°11'0 0.0
2018-Dec-06 18:00N 29°57' W 093°11'0 0.1
2018-Dec-06 17:31N 29°57' W 093°11'0 0.3
2018-Dec-06 17:00N 29°57' W 093°11'0 0.4
2018-Dec-06 16:30N 29°57' W 093°11'0 0.3
2018-Dec-06 16:00N 29°57' W 093°10'0 0.1
2018-Dec-06 15:30N 29°57' W 093°10'1 2.0
2018-Dec-06 15:00N 29°56' W 093°10'2 3.5
2018-Dec-06 14:30N 29°56' W 093°08'2 3.6
2018-Dec-06 14:00N 29°56' W 093°06'2 3.7
2018-Dec-06 13:30N 29°56' W 093°04'1 0.8
2018-Dec-06 12:01N 29°56' W 093°02'0 0.0
2018-Dec-06 12:00N 29°56' W 093°02'0 0.2
2018-Dec-06 11:30N 29°56' W 093°02'1 0.9
2018-Dec-06 10:29N 29°56' W 093°01'2 3.5
2018-Dec-06 09:50N 29°56' W 092°58'31 1.3
2018-Dec-05 10:44N 29°53' W 092°23'1 3.2
2018-Dec-05 10:30N 29°52' W 092°22'1 2.9
2018-Dec-05 10:00N 29°51' W 092°21'1 2.7
2018-Dec-05 09:30N 29°51' W 092°20'2 3.0
2018-Dec-05 09:00N 29°50' W 092°18'2 3.1
2018-Dec-05 08:30N 29°49' W 092°17'2 3.1
2018-Dec-05 08:00N 29°48' W 092°15'2 3.3
2018-Dec-05 07:30N 29°48' W 092°14'1 2.8
2018-Dec-05 07:00N 29°47' W 092°12'1 2.6
2018-Dec-05 06:30N 29°47' W 092°11'1 2.4
2018-Dec-05 06:00N 29°47' W 092°10'2 3.0
2018-Dec-05 05:30N 29°47' W 092°08'2 3.4
2018-Dec-05 05:00N 29°48' W 092°06'2 3.3
2018-Dec-05 04:30N 29°48' W 092°04'2 3.2
2018-Dec-05 04:00N 29°49' W 092°02'2 3.4
2018-Dec-05 03:30N 29°50' W 092°01'2 3.5
2018-Dec-05 03:00N 29°50' W 091°59'2 3.8
2018-Dec-05 02:30N 29°51' W 091°57'6 4.1
2018-Dec-05 01:03N 29°50' W 091°50'  

Dump ship's entire track history